createdAt,value
2017-04-14T00:00:50.562Z,0
2017-04-14T00:01:52.369Z,0
2017-04-14T00:02:54.174Z,0
2017-04-14T00:03:56.039Z,0
2017-04-14T00:04:58.541Z,0
2017-04-14T00:06:00.690Z,0
2017-04-14T00:07:02.542Z,0
2017-04-14T00:08:04.693Z,0
2017-04-14T00:09:06.497Z,0
2017-04-14T00:10:08.662Z,0
2017-04-14T00:11:10.482Z,0
2017-04-14T00:12:12.318Z,0
2017-04-14T00:13:14.136Z,0
2017-04-14T00:14:16.280Z,0
2017-04-14T00:15:18.121Z,0
2017-04-14T00:16:19.928Z,0
2017-04-14T00:17:21.746Z,0
2017-04-14T00:18:23.546Z,0
2017-04-14T00:19:25.362Z,0
2017-04-14T00:20:27.172Z,0
2017-04-14T00:21:28.984Z,0
2017-04-14T00:22:30.793Z,0
2017-04-14T00:23:32.612Z,0
2017-04-14T00:24:35.105Z,0
2017-04-14T00:25:37.260Z,0
2017-04-14T00:26:39.072Z,0
2017-04-14T00:27:41.222Z,0
2017-04-14T00:28:43.372Z,0
2017-04-14T00:29:45.175Z,0
2017-04-14T00:30:47.321Z,0
2017-04-14T00:31:49.124Z,0
2017-04-14T00:32:50.929Z,0
2017-04-14T00:33:52.747Z,0
2017-04-14T00:34:54.880Z,0
2017-04-14T00:35:57.028Z,0
2017-04-14T00:36:59.178Z,0
2017-04-14T00:38:00.990Z,0
2017-04-14T00:39:02.805Z,0
2017-04-14T00:40:04.607Z,0
2017-04-14T00:41:06.424Z,0
2017-04-14T00:42:08.234Z,0
2017-04-14T00:43:10.043Z,0
2017-04-14T00:44:11.851Z,0
2017-04-14T00:45:14.001Z,0
2017-04-14T00:46:15.813Z,0
2017-04-14T00:47:17.627Z,0
2017-04-14T00:48:19.438Z,0
2017-04-14T00:49:21.949Z,0
2017-04-14T00:50:23.800Z,0
2017-04-14T00:51:25.614Z,0
2017-04-14T00:52:27.414Z,0
2017-04-14T00:53:29.246Z,0
2017-04-14T00:54:31.049Z,0
2017-04-14T00:55:32.854Z,0
2017-04-14T00:56:34.672Z,0
2017-04-14T00:57:36.481Z,0
2017-04-14T00:58:38.630Z,0
2017-04-14T00:59:40.490Z,0
2017-04-14T01:00:42.642Z,0
2017-04-14T01:01:44.452Z,0
2017-04-14T01:02:46.263Z,0
2017-04-14T01:03:48.072Z,0
2017-04-14T01:04:50.559Z,0
2017-04-14T01:05:52.375Z,0
2017-04-14T01:06:54.178Z,0
2017-04-14T01:07:56.048Z,0
2017-04-14T01:08:58.187Z,0
2017-04-14T01:10:00.343Z,0
2017-04-14T01:11:02.482Z,0
2017-04-14T01:12:04.294Z,0
2017-04-14T01:13:06.094Z,0
2017-04-14T01:14:07.945Z,0
2017-04-14T01:15:09.766Z,0
2017-04-14T01:16:11.570Z,0
2017-04-14T01:17:13.369Z,0
2017-04-14T01:18:15.530Z,0
2017-04-14T01:19:17.339Z,0
2017-04-14T01:20:19.157Z,0
2017-04-14T01:21:20.952Z,0
2017-04-14T01:22:22.766Z,0
2017-04-14T01:23:24.575Z,0
2017-04-14T01:24:26.380Z,0
2017-04-14T01:25:28.231Z,0
2017-04-14T01:26:30.031Z,0
2017-04-14T01:27:31.836Z,0
2017-04-14T01:28:33.656Z,0
2017-04-14T01:29:35.802Z,0
2017-04-14T01:30:37.949Z,0
2017-04-14T01:31:39.755Z,0
2017-04-14T01:32:41.570Z,0
2017-04-14T01:33:43.373Z,0
2017-04-14T01:34:45.231Z,0
2017-04-14T01:35:47.385Z,0
2017-04-14T01:36:49.195Z,0
2017-04-14T01:37:51.054Z,0
2017-04-14T01:38:53.202Z,0
2017-04-14T01:39:55.692Z,0
2017-04-14T01:40:57.496Z,0
2017-04-14T01:41:59.305Z,0
2017-04-14T01:43:01.453Z,0
2017-04-14T01:44:03.960Z,0
2017-04-14T01:45:05.763Z,0
2017-04-14T01:46:07.584Z,0
2017-04-14T01:47:09.393Z,0
2017-04-14T01:48:11.195Z,0
2017-04-14T01:49:13.680Z,0
2017-04-14T01:50:15.486Z,0
2017-04-14T01:51:17.629Z,0
2017-04-14T01:52:19.470Z,0
2017-04-14T01:53:21.280Z,0
2017-04-14T01:54:23.773Z,0
2017-04-14T01:55:25.918Z,0
2017-04-14T01:56:27.722Z,0
2017-04-14T01:57:29.522Z,0
2017-04-14T01:58:31.334Z,0
2017-04-14T01:59:33.151Z,0
2017-04-14T02:00:34.956Z,0
2017-04-14T02:01:36.762Z,0
2017-04-14T02:02:38.898Z,0
2017-04-14T02:03:40.712Z,0
2017-04-14T02:04:43.206Z,0
2017-04-14T02:05:45.009Z,0
2017-04-14T02:06:46.822Z,0
2017-04-14T02:07:48.643Z,0
2017-04-14T02:08:50.794Z,0
2017-04-14T02:09:53.278Z,0
2017-04-14T02:10:55.420Z,0
2017-04-14T02:11:57.234Z,0
2017-04-14T02:12:59.040Z,0
2017-04-14T02:14:01.202Z,0
2017-04-14T02:15:03.013Z,0
2017-04-14T02:16:04.833Z,0
2017-04-14T02:17:06.643Z,0
2017-04-14T02:18:08.460Z,0
2017-04-14T02:19:10.273Z,0
2017-04-14T02:20:12.104Z,0
2017-04-14T02:21:13.908Z,0
2017-04-14T02:22:15.731Z,0
2017-04-14T02:23:17.583Z,0
2017-04-14T02:24:19.389Z,0
2017-04-14T02:25:21.203Z,0
2017-04-14T02:26:23.005Z,0
2017-04-14T02:27:24.824Z,0
2017-04-14T02:28:26.636Z,0
2017-04-14T02:29:28.469Z,0
2017-04-14T02:30:30.278Z,0
2017-04-14T02:31:32.076Z,0
2017-04-14T02:32:33.951Z,0
2017-04-14T02:33:36.086Z,0
2017-04-14T02:34:37.892Z,0
2017-04-14T02:35:39.705Z,0
2017-04-14T02:36:41.851Z,0
2017-04-14T02:37:43.661Z,0
2017-04-14T02:38:45.513Z,0
2017-04-14T02:39:47.313Z,0
2017-04-14T02:40:49.467Z,0
2017-04-14T02:41:51.272Z,0
2017-04-14T02:42:53.082Z,0
2017-04-14T02:43:55.220Z,0
2017-04-14T02:44:57.375Z,0
2017-04-14T02:45:59.192Z,0
2017-04-14T02:47:00.990Z,0
2017-04-14T02:48:02.807Z,0
2017-04-14T02:49:04.621Z,0
2017-04-14T02:50:06.431Z,0
2017-04-14T02:51:08.240Z,0
2017-04-14T02:52:10.052Z,0
2017-04-14T02:53:11.862Z,0
2017-04-14T02:54:13.669Z,0
2017-04-14T02:55:15.484Z,0
2017-04-14T02:56:17.282Z,0
2017-04-14T02:57:19.435Z,0
2017-04-14T02:58:21.590Z,0
2017-04-14T02:59:23.735Z,0
2017-04-14T03:00:25.534Z,0
2017-04-14T03:01:27.347Z,0
2017-04-14T03:02:29.489Z,0
2017-04-14T03:03:31.314Z,0
2017-04-14T03:04:33.458Z,0
2017-04-14T03:05:35.263Z,0
2017-04-14T03:06:37.407Z,0
2017-04-14T03:07:39.218Z,0
2017-04-14T03:08:41.041Z,0
2017-04-14T03:09:43.183Z,0
2017-04-14T03:10:44.989Z,0
2017-04-14T03:11:46.802Z,0
2017-04-14T03:12:48.605Z,0
2017-04-14T03:13:50.408Z,0
2017-04-14T03:14:52.215Z,0
2017-04-14T03:15:54.030Z,0
2017-04-14T03:16:55.825Z,0
2017-04-14T03:17:57.632Z,0
2017-04-14T03:18:59.775Z,0
2017-04-14T03:20:01.921Z,0
2017-04-14T03:21:03.725Z,0
2017-04-14T03:22:05.878Z,0
2017-04-14T03:23:07.683Z,0
2017-04-14T03:24:09.825Z,0
2017-04-14T03:25:12.005Z,0
2017-04-14T03:26:13.813Z,0
2017-04-14T03:27:15.622Z,0
2017-04-14T03:28:17.438Z,0
2017-04-14T03:29:19.254Z,0
2017-04-14T03:30:21.418Z,0
2017-04-14T03:31:23.236Z,0
2017-04-14T03:32:25.046Z,0
2017-04-14T03:33:26.852Z,1
2017-04-14T03:34:28.662Z,1
2017-04-14T03:35:30.467Z,1
2017-04-14T03:36:32.275Z,1
2017-04-14T03:37:34.085Z,1
2017-04-14T03:38:36.262Z,2
2017-04-14T03:39:38.062Z,2
2017-04-14T03:40:39.885Z,0
2017-04-14T03:41:41.681Z,1
2017-04-14T03:42:43.496Z,1
2017-04-14T03:43:45.300Z,3
2017-04-14T03:44:47.462Z,3
2017-04-14T03:45:49.420Z,3
2017-04-14T03:46:51.567Z,4
2017-04-14T03:47:53.379Z,5
2017-04-14T03:48:55.849Z,6
2017-04-14T03:49:57.677Z,7
2017-04-14T03:50:59.833Z,8
2017-04-14T03:52:01.632Z,10
2017-04-14T03:53:03.442Z,13
2017-04-14T03:54:05.242Z,14
2017-04-14T03:55:07.066Z,16
2017-04-14T03:56:08.905Z,20
2017-04-14T03:57:10.720Z,22
2017-04-14T03:58:12.522Z,26
2017-04-14T03:59:14.679Z,30
2017-04-14T04:00:16.826Z,33
2017-04-14T04:01:18.638Z,39
2017-04-14T04:02:20.437Z,45
2017-04-14T04:03:22.252Z,51
2017-04-14T04:04:24.396Z,57
2017-04-14T04:05:26.205Z,60
2017-04-14T04:06:28.005Z,68
2017-04-14T04:07:30.152Z,73
2017-04-14T04:08:31.962Z,80
2017-04-14T04:09:33.774Z,87
2017-04-14T04:10:35.574Z,92
2017-04-14T04:11:37.383Z,101
2017-04-14T04:12:39.524Z,111
2017-04-14T04:13:42.038Z,123
2017-04-14T04:14:43.848Z,140
2017-04-14T04:15:45.659Z,158
2017-04-14T04:16:47.465Z,173
2017-04-14T04:17:49.281Z,197
2017-04-14T04:18:51.420Z,221
2017-04-14T04:19:53.224Z,240
2017-04-14T04:20:55.378Z,265
2017-04-14T04:21:57.195Z,286
2017-04-14T04:22:59.333Z,309
2017-04-14T04:24:01.144Z,340
2017-04-14T04:25:03.287Z,364
2017-04-14T04:26:05.109Z,387
2017-04-14T04:27:07.293Z,418
2017-04-14T04:28:09.141Z,462
2017-04-14T04:29:11.287Z,515
2017-04-14T04:30:13.107Z,571
2017-04-14T04:31:15.951Z,607
2017-04-14T04:32:18.080Z,638
2017-04-14T04:33:20.229Z,695
2017-04-14T04:34:22.083Z,753
2017-04-14T04:35:24.228Z,799
2017-04-14T04:36:26.038Z,824
2017-04-14T04:37:27.848Z,858
2017-04-14T04:38:29.999Z,886
2017-04-14T04:39:32.131Z,924
2017-04-14T04:40:33.947Z,967
2017-04-14T04:41:35.796Z,1003
2017-04-14T04:42:37.599Z,1040
2017-04-14T04:43:39.412Z,1072
2017-04-14T04:44:41.260Z,1116
2017-04-14T04:45:43.075Z,1160
2017-04-14T04:46:45.233Z,1200
2017-04-14T04:47:47.035Z,1239
2017-04-14T04:48:49.196Z,1276
2017-04-14T04:49:51.004Z,1303
2017-04-14T04:50:52.818Z,1327
2017-04-14T04:51:54.618Z,1377
2017-04-14T04:52:56.422Z,1511
2017-04-14T04:53:58.229Z,1533
2017-04-14T04:55:00.035Z,1458
2017-04-14T04:56:01.839Z,1450
2017-04-14T04:57:03.639Z,1462
2017-04-14T04:58:05.495Z,1450
2017-04-14T04:59:07.311Z,1437
2017-04-14T05:00:09.120Z,1422
2017-04-14T05:01:10.920Z,1502
2017-04-14T05:02:12.732Z,1675
2017-04-14T05:03:14.541Z,1799
2017-04-14T05:04:16.343Z,1839
2017-04-14T05:05:18.153Z,1937
2017-04-14T05:06:19.958Z,2104
2017-04-14T05:07:21.762Z,2147
2017-04-14T05:08:23.920Z,2125
2017-04-14T05:09:26.399Z,2097
2017-04-14T05:10:28.213Z,2301
2017-04-14T05:11:30.019Z,2279
2017-04-14T05:12:31.874Z,2336
2017-04-14T05:13:33.676Z,2422
2017-04-14T05:14:35.821Z,2413
2017-04-14T05:15:37.630Z,2512
2017-04-14T05:16:39.465Z,2560
2017-04-14T05:17:41.282Z,2268
2017-04-14T05:18:43.081Z,2447
2017-04-14T05:19:45.594Z,2667
2017-04-14T05:20:47.389Z,2461
2017-04-14T05:21:49.207Z,2737
2017-04-14T05:22:51.014Z,2917
2017-04-14T05:23:53.185Z,2881
2017-04-14T05:24:54.994Z,3048
2017-04-14T05:25:57.143Z,3230
2017-04-14T05:26:58.951Z,3191
2017-04-14T05:28:01.095Z,3108
2017-04-14T05:29:02.915Z,3320
2017-04-14T05:30:04.723Z,3371
2017-04-14T05:31:06.542Z,3445
2017-04-14T05:32:08.356Z,3288
2017-04-14T05:33:10.496Z,3554
2017-04-14T05:34:12.298Z,3394
2017-04-14T05:35:14.446Z,3640
2017-04-14T05:36:16.253Z,3560
2017-04-14T05:37:18.418Z,3761
2017-04-14T05:38:20.229Z,3974
2017-04-14T05:39:22.039Z,3912
2017-04-14T05:40:23.845Z,3272
2017-04-14T05:41:25.657Z,3192
2017-04-14T05:42:27.459Z,3294
2017-04-14T05:43:29.272Z,3434
2017-04-14T05:44:31.077Z,3587
2017-04-14T05:45:32.898Z,3651
2017-04-14T05:46:34.707Z,3827
2017-04-14T05:47:36.514Z,3887
2017-04-14T05:48:38.312Z,3977
2017-04-14T05:49:40.121Z,4038
2017-04-14T05:50:41.953Z,4199
2017-04-14T05:51:43.765Z,4254
2017-04-14T05:52:45.573Z,4087
2017-04-14T05:53:47.402Z,3988
2017-04-14T05:54:49.207Z,4042
2017-04-14T05:55:51.005Z,4173
2017-04-14T05:56:52.818Z,4541
2017-04-14T05:57:55.009Z,4717
2017-04-14T05:58:57.166Z,4925
2017-04-14T05:59:59.334Z,4813
2017-04-14T06:01:01.818Z,4767
2017-04-14T06:02:03.662Z,4708
2017-04-14T06:03:05.499Z,5024
2017-04-14T06:04:07.311Z,5103
2017-04-14T06:05:09.454Z,5173
2017-04-14T06:06:11.636Z,5676
2017-04-14T06:07:13.484Z,6398
2017-04-14T06:08:15.288Z,5800
2017-04-14T06:09:17.094Z,5881
2017-04-14T06:10:19.252Z,4835
2017-04-14T06:11:21.391Z,6565
2017-04-14T06:12:23.545Z,6714
2017-04-14T06:13:25.345Z,6444
2017-04-14T06:14:27.489Z,6778
2017-04-14T06:15:29.298Z,6394
2017-04-14T06:16:31.152Z,6605
2017-04-14T06:17:32.959Z,6010
2017-04-14T06:18:34.768Z,6568
2017-04-14T06:19:36.574Z,7483
2017-04-14T06:20:38.382Z,7288
2017-04-14T06:21:40.185Z,7057
2017-04-14T06:22:42.003Z,6745
2017-04-14T06:23:43.819Z,7582
2017-04-14T06:24:45.636Z,7094
2017-04-14T06:25:47.449Z,5974
2017-04-14T06:26:49.260Z,5991
2017-04-14T06:27:51.089Z,7133
2017-04-14T06:28:52.937Z,7818
2017-04-14T06:29:54.775Z,7545
2017-04-14T06:30:56.590Z,6723
2017-04-14T06:31:58.793Z,7160
2017-04-14T06:33:00.601Z,6639
2017-04-14T06:34:02.500Z,8215
2017-04-14T06:35:04.506Z,8956
2017-04-14T06:36:06.326Z,8844
2017-04-14T06:37:08.138Z,7365
2017-04-14T06:38:09.951Z,8895
2017-04-14T06:39:11.765Z,8343
2017-04-14T06:40:13.575Z,7557
2017-04-14T06:41:15.389Z,7793
2017-04-14T06:42:17.212Z,7748
2017-04-14T06:43:19.026Z,7686
2017-04-14T06:44:20.844Z,8308
2017-04-14T06:45:23.356Z,8038
2017-04-14T06:46:25.299Z,8772
2017-04-14T06:47:27.120Z,9038
2017-04-14T06:48:28.923Z,7834
2017-04-14T06:49:30.827Z,10090
2017-04-14T06:50:32.645Z,9683
2017-04-14T06:51:34.464Z,9262
2017-04-14T06:52:36.402Z,10534
2017-04-14T06:53:38.225Z,9663
2017-04-14T06:54:40.030Z,11992
2017-04-14T06:55:41.845Z,9140
2017-04-14T06:56:43.658Z,8561
2017-04-14T06:57:45.624Z,8440
2017-04-14T06:58:47.770Z,9418
2017-04-14T06:59:49.594Z,7002
2017-04-14T07:00:51.418Z,7812
2017-04-14T07:01:53.569Z,9221
2017-04-14T07:02:55.730Z,11506
2017-04-14T07:03:57.878Z,9266
2017-04-14T07:04:59.704Z,8352
2017-04-14T07:06:01.864Z,7313
2017-04-14T07:07:03.783Z,9810
2017-04-14T07:08:05.595Z,9492
2017-04-14T07:09:07.844Z,8043
2017-04-14T07:10:10.004Z,10052
2017-04-14T07:11:12.702Z,10922
2017-04-14T07:12:16.295Z,9128
2017-04-14T07:13:18.223Z,8621
2017-04-14T07:14:20.457Z,10069
2017-04-14T07:15:22.659Z,10075
2017-04-14T07:16:24.496Z,10600
2017-04-14T07:17:26.368Z,10632
2017-04-14T07:18:29.398Z,9797
2017-04-14T07:19:31.954Z,10003
2017-04-14T07:20:34.492Z,13493
2017-04-14T07:21:37.761Z,12894
2017-04-14T07:22:39.616Z,13645
2017-04-14T07:23:41.628Z,10465
2017-04-14T07:24:43.526Z,10659
2017-04-14T07:25:45.377Z,11777
2017-04-14T07:26:47.269Z,10437
2017-04-14T07:27:49.137Z,11757
2017-04-14T07:28:51.579Z,12720
2017-04-14T07:29:53.415Z,12286
2017-04-14T07:30:55.615Z,11600
2017-04-14T07:31:57.433Z,15364
2017-04-14T07:32:59.249Z,11594
2017-04-14T07:34:01.088Z,13494
2017-04-14T07:35:02.940Z,15203
2017-04-14T07:36:04.832Z,15905
2017-04-14T07:37:06.637Z,16771
2017-04-14T07:38:08.448Z,13160
2017-04-14T07:39:10.670Z,11206
2017-04-14T07:40:12.602Z,13040
2017-04-14T07:41:14.421Z,13432
2017-04-14T07:42:16.283Z,11474
2017-04-14T07:43:18.509Z,12294
2017-04-14T07:44:20.348Z,13287
2017-04-14T07:45:22.512Z,12536
2017-04-14T07:46:24.332Z,14678
2017-04-14T07:47:26.406Z,11896
2017-04-14T07:48:28.229Z,10709
2017-04-14T07:49:30.054Z,13064
2017-04-14T07:50:31.866Z,11707
2017-04-14T07:51:33.682Z,10894
2017-04-14T07:52:35.555Z,8991
2017-04-14T07:53:37.382Z,8937
2017-04-14T07:54:39.894Z,8644
2017-04-14T07:55:41.721Z,8598
2017-04-14T07:56:43.537Z,15844
2017-04-14T07:57:45.573Z,65536
2017-04-14T07:58:47.378Z,65536
2017-04-14T07:59:49.182Z,65536
2017-04-14T08:00:51.003Z,65536
2017-04-14T08:01:52.818Z,65536
2017-04-14T08:02:54.640Z,65536
2017-04-14T08:03:56.455Z,65536
2017-04-14T08:04:58.265Z,65536
2017-04-14T08:06:00.421Z,65536
2017-04-14T08:07:02.237Z,65536
2017-04-14T08:08:04.046Z,65536
2017-04-14T08:09:05.852Z,65536
2017-04-14T08:10:07.832Z,65536
2017-04-14T08:11:09.676Z,32958
2017-04-14T08:12:11.538Z,30729
2017-04-14T08:13:13.441Z,65536
2017-04-14T08:14:15.610Z,65536
2017-04-14T08:15:17.424Z,65536
2017-04-14T08:16:19.245Z,65536
2017-04-14T08:17:21.080Z,65536
2017-04-14T08:18:22.892Z,65536
2017-04-14T08:19:25.043Z,65536
2017-04-14T08:20:26.865Z,24015
2017-04-14T08:21:28.681Z,16719
2017-04-14T08:22:30.491Z,65536
2017-04-14T08:23:32.314Z,65536
2017-04-14T08:24:34.137Z,65536
2017-04-14T08:25:36.021Z,65536
2017-04-14T08:26:37.846Z,65536
2017-04-14T08:27:39.667Z,65536
2017-04-14T08:28:41.477Z,65536
2017-04-14T08:29:43.634Z,24965
2017-04-14T08:30:45.473Z,65536
2017-04-14T08:31:47.289Z,65536
2017-04-14T08:32:49.098Z,21224
2017-04-14T08:33:50.920Z,15886
2017-04-14T08:34:53.077Z,12107
2017-04-14T08:35:54.896Z,15473
2017-04-14T08:36:56.712Z,22105
2017-04-14T08:37:58.861Z,65536
2017-04-14T08:39:00.699Z,35093
2017-04-14T08:40:02.511Z,65536
2017-04-14T08:41:04.319Z,65536
2017-04-14T08:42:06.135Z,65536
2017-04-14T08:43:07.949Z,65536
2017-04-14T08:44:09.766Z,65536
2017-04-14T08:45:11.583Z,65536
2017-04-14T08:46:13.405Z,65536
2017-04-14T08:47:15.210Z,65536
2017-04-14T08:48:17.036Z,65536
2017-04-14T08:49:18.848Z,65536
2017-04-14T08:50:20.708Z,65536
2017-04-14T08:51:22.530Z,65536
2017-04-14T08:52:24.652Z,65536
2017-04-14T08:53:26.471Z,65536
2017-04-14T08:54:28.627Z,65536
2017-04-14T08:55:30.456Z,65536
2017-04-14T08:56:32.275Z,65536
2017-04-14T08:57:34.083Z,65536
2017-04-14T08:58:36.117Z,65536
2017-04-14T08:59:37.926Z,65536
2017-04-14T09:00:39.736Z,65536
2017-04-14T09:01:41.895Z,65536
2017-04-14T09:02:43.729Z,65536
2017-04-14T09:03:45.540Z,65536
2017-04-14T09:04:47.360Z,65536
2017-04-14T09:05:49.182Z,65536
2017-04-14T09:06:50.996Z,65536
2017-04-14T09:07:52.816Z,65536
2017-04-14T09:08:54.646Z,65536
2017-04-14T09:09:56.807Z,65536
2017-04-14T09:10:58.616Z,18422
2017-04-14T09:12:00.781Z,21963
2017-04-14T09:13:02.606Z,28926
2017-04-14T09:14:04.421Z,21170
2017-04-14T09:15:06.241Z,16728
2017-04-14T09:16:08.402Z,14451
2017-04-14T09:17:10.225Z,21252
2017-04-14T09:18:12.048Z,24969
2017-04-14T09:19:13.887Z,13017
2017-04-14T09:20:15.693Z,16426
2017-04-14T09:21:17.521Z,65536
2017-04-14T09:22:19.671Z,65536
2017-04-14T09:23:21.488Z,65536
2017-04-14T09:24:23.305Z,65536
2017-04-14T09:25:25.126Z,29417
2017-04-14T09:26:27.279Z,23173
2017-04-14T09:27:29.105Z,28690
2017-04-14T09:28:30.912Z,23420
2017-04-14T09:29:33.070Z,20332
2017-04-14T09:30:34.897Z,18007
2017-04-14T09:31:36.712Z,15174
2017-04-14T09:32:38.861Z,15695
2017-04-14T09:33:40.690Z,15417
2017-04-14T09:34:42.914Z,17650
2017-04-14T09:35:44.732Z,20062
2017-04-14T09:36:46.556Z,21323
2017-04-14T09:37:48.371Z,23222
2017-04-14T09:38:50.193Z,23163
2017-04-14T09:39:52.017Z,24481
2017-04-14T09:40:54.190Z,26580
2017-04-14T09:41:56.009Z,31051
2017-04-14T09:42:57.831Z,29505
2017-04-14T09:43:59.666Z,23770
2017-04-14T09:45:01.817Z,24856
2017-04-14T09:46:04.325Z,27256
2017-04-14T09:47:06.635Z,29003
2017-04-14T09:48:08.450Z,65536
2017-04-14T09:49:10.273Z,65536
2017-04-14T09:50:12.101Z,24818
2017-04-14T09:51:13.920Z,65536
2017-04-14T09:52:16.042Z,18212
2017-04-14T09:53:17.859Z,14327
2017-04-14T09:54:19.684Z,16462
2017-04-14T09:55:21.500Z,22901
2017-04-14T09:56:23.324Z,20906
2017-04-14T09:57:25.138Z,65536
2017-04-14T09:58:26.959Z,22887
2017-04-14T09:59:28.775Z,34356
2017-04-14T10:00:30.598Z,24562
2017-04-14T10:01:32.403Z,65536
2017-04-14T10:02:34.230Z,65536
2017-04-14T10:03:36.383Z,65536
2017-04-14T10:04:38.218Z,65536
2017-04-14T10:05:40.020Z,65536
2017-04-14T10:06:41.837Z,65536
2017-04-14T10:07:43.653Z,65536
2017-04-14T10:08:45.476Z,65536
2017-04-14T10:09:47.287Z,65536
2017-04-14T10:10:49.106Z,65536
2017-04-14T10:11:51.271Z,24974
2017-04-14T10:12:53.092Z,21713
2017-04-14T10:13:54.918Z,13429
2017-04-14T10:14:56.768Z,10886
2017-04-14T10:15:58.603Z,12160
2017-04-14T10:17:00.764Z,14726
2017-04-14T10:18:02.598Z,14773
2017-04-14T10:19:05.103Z,12589
2017-04-14T10:20:06.930Z,16182
2017-04-14T10:21:08.752Z,27087
2017-04-14T10:22:10.571Z,29822
2017-04-14T10:23:12.385Z,22529
2017-04-14T10:24:14.207Z,65536
2017-04-14T10:25:16.029Z,65536
2017-04-14T10:26:18.198Z,26371
2017-04-14T10:27:20.013Z,65536
2017-04-14T10:28:21.838Z,65536
2017-04-14T10:29:23.664Z,33763
2017-04-14T10:30:25.535Z,23357
2017-04-14T10:31:27.345Z,65536
2017-04-14T10:32:29.167Z,65536
2017-04-14T10:33:30.993Z,65536
2017-04-14T10:34:33.149Z,65536
2017-04-14T10:35:34.975Z,65536
2017-04-14T10:36:36.805Z,65536
2017-04-14T10:37:38.618Z,65536
2017-04-14T10:38:40.461Z,27629
2017-04-14T10:39:42.277Z,65536
2017-04-14T10:40:44.443Z,65536
2017-04-14T10:41:46.261Z,65536
2017-04-14T10:42:48.097Z,65536
2017-04-14T10:43:49.911Z,27535
2017-04-14T10:44:51.732Z,33064
2017-04-14T10:45:53.901Z,30764
2017-04-14T10:46:55.716Z,24864
2017-04-14T10:47:57.539Z,24360
2017-04-14T10:48:59.351Z,22210
2017-04-14T10:50:01.170Z,23353
2017-04-14T10:51:03.008Z,30761
2017-04-14T10:52:04.825Z,65536
2017-04-14T10:53:06.650Z,28377
2017-04-14T10:54:08.459Z,26590
2017-04-14T10:55:10.288Z,26314
2017-04-14T10:56:12.115Z,65536
2017-04-14T10:57:14.271Z,29600
2017-04-14T10:58:16.105Z,27222
2017-04-14T10:59:17.924Z,27313
2017-04-14T11:00:19.753Z,31132
2017-04-14T11:01:21.579Z,30815
2017-04-14T11:02:23.393Z,65536
2017-04-14T11:03:25.221Z,65536
2017-04-14T11:04:27.050Z,65536
2017-04-14T11:05:28.877Z,65536
2017-04-14T11:06:30.694Z,36360
2017-04-14T11:07:32.523Z,65536
2017-04-14T11:08:34.341Z,65536
2017-04-14T11:09:36.153Z,65536
2017-04-14T11:10:37.982Z,65536
2017-04-14T11:11:39.808Z,65536
2017-04-14T11:12:41.623Z,65536
2017-04-14T11:13:43.785Z,65536
2017-04-14T11:14:45.960Z,65536
2017-04-14T11:15:47.798Z,65536
2017-04-14T11:16:49.617Z,65536
2017-04-14T11:17:51.433Z,65536
2017-04-14T11:18:53.252Z,65536
2017-04-14T11:19:55.085Z,65536
2017-04-14T11:20:56.913Z,65536
2017-04-14T11:21:58.741Z,65536
2017-04-14T11:23:00.561Z,65536
2017-04-14T11:24:02.404Z,65536
2017-04-14T11:25:04.224Z,35391
2017-04-14T11:26:06.046Z,30574
2017-04-14T11:27:07.869Z,28973
2017-04-14T11:28:09.690Z,30843
2017-04-14T11:29:11.521Z,23812
2017-04-14T11:30:13.336Z,17037
2017-04-14T11:31:15.160Z,13450
2017-04-14T11:32:16.982Z,12751
2017-04-14T11:33:18.800Z,14358
2017-04-14T11:34:20.987Z,14438
2017-04-14T11:35:22.798Z,12514
2017-04-14T11:38:31.010Z,10158
2017-04-14T11:39:32.836Z,10769
2017-04-14T11:40:34.820Z,10809
2017-04-14T11:41:36.633Z,9132
2017-04-14T11:42:38.458Z,6517
2017-04-14T11:43:40.284Z,4711
2017-04-14T11:44:42.099Z,3536
2017-04-14T11:45:43.933Z,2753
2017-04-14T11:46:45.773Z,2852
2017-04-14T11:47:47.930Z,3583
2017-04-14T11:48:49.743Z,4592
2017-04-14T11:49:51.582Z,5897
2017-04-14T11:50:53.734Z,6521
2017-04-14T11:51:55.556Z,6844
2017-04-14T11:52:57.387Z,7759
2017-04-14T11:53:59.204Z,8159
2017-04-14T11:55:01.056Z,8573
2017-04-14T11:56:02.881Z,9334
2017-04-14T11:57:05.039Z,9733
2017-04-14T11:58:07.203Z,9755
2017-04-14T11:59:09.038Z,9321
2017-04-14T12:00:11.209Z,8624
2017-04-14T12:01:13.026Z,9427
2017-04-14T12:02:14.860Z,9150
2017-04-14T12:03:16.674Z,7487
2017-04-14T12:04:18.540Z,6149
2017-04-14T12:05:20.701Z,5779
2017-04-14T12:06:22.539Z,6250
2017-04-14T12:07:24.349Z,5912
2017-04-14T12:08:26.175Z,4847
2017-04-14T12:09:27.998Z,4392
2017-04-14T12:10:29.809Z,4543
2017-04-14T12:11:31.977Z,4943
2017-04-14T12:12:33.794Z,6439
2017-04-14T12:13:35.613Z,7969
2017-04-14T12:14:37.441Z,9249
2017-04-14T12:15:39.256Z,10483
2017-04-14T12:16:41.071Z,11678
2017-04-14T12:17:42.886Z,12684
2017-04-14T12:18:44.709Z,13368
2017-04-14T12:19:47.207Z,14426
2017-04-14T12:20:49.059Z,16142
2017-04-14T12:21:50.885Z,17850
2017-04-14T12:22:52.702Z,18391
2017-04-14T12:23:54.872Z,17317
2017-04-14T12:24:56.695Z,16599
2017-04-14T12:25:58.510Z,16252
2017-04-14T12:27:00.335Z,15167
2017-04-14T12:28:02.167Z,13737
2017-04-14T12:29:03.992Z,13654
2017-04-14T12:30:05.821Z,11879
2017-04-14T12:31:08.017Z,8312
2017-04-14T12:32:09.822Z,5951
2017-04-14T12:33:11.973Z,5188
2017-04-14T12:34:13.796Z,4946
2017-04-14T12:35:15.962Z,4628
2017-04-14T12:36:17.786Z,3864
2017-04-14T12:37:19.682Z,3081
2017-04-14T12:38:21.512Z,3074
2017-04-14T12:39:23.654Z,3570
2017-04-14T12:40:26.507Z,4032
2017-04-14T12:41:28.330Z,4540
2017-04-14T12:42:30.497Z,5136
2017-04-14T12:43:32.330Z,5540
2017-04-14T12:44:34.145Z,5898
2017-04-14T12:45:35.965Z,6543
2017-04-14T12:46:37.785Z,7335
2017-04-14T12:47:39.957Z,7909
2017-04-14T12:48:41.785Z,8754
2017-04-14T12:49:43.597Z,9943
2017-04-14T12:50:45.420Z,9877
2017-04-14T12:51:47.236Z,8725
2017-04-14T12:52:49.056Z,7422
2017-04-14T12:53:50.872Z,6359
2017-04-14T12:54:52.691Z,6003
2017-04-14T12:55:54.518Z,5548
2017-04-14T12:56:56.340Z,5484
2017-04-14T12:57:58.162Z,5539
2017-04-14T12:59:00.316Z,6066
2017-04-14T13:00:02.135Z,6718
2017-04-14T13:01:03.966Z,7232
2017-04-14T13:02:05.786Z,7988
2017-04-14T13:03:07.950Z,8886
2017-04-14T13:04:09.767Z,9418
2017-04-14T13:05:11.601Z,9746
2017-04-14T13:06:13.757Z,9865
2017-04-14T13:07:15.566Z,9819
2017-04-14T13:08:17.420Z,9469
2017-04-14T13:09:19.251Z,8912
2017-04-14T13:10:21.123Z,8386
2017-04-14T13:11:22.945Z,8037
2017-04-14T13:12:24.766Z,7687
2017-04-14T13:13:26.630Z,7529
2017-04-14T13:14:28.794Z,7569
2017-04-14T13:15:30.954Z,7697
2017-04-14T13:16:32.765Z,7961
2017-04-14T13:17:34.923Z,8304
2017-04-14T13:18:36.744Z,8559
2017-04-14T13:19:38.589Z,8645
2017-04-14T13:20:40.394Z,8788
2017-04-14T13:21:42.220Z,9116
2017-04-14T13:22:44.041Z,9292
2017-04-14T13:23:45.889Z,9347
2017-04-14T13:24:47.706Z,9448
2017-04-14T13:25:49.536Z,9720
2017-04-14T13:26:51.424Z,10224
2017-04-14T13:27:53.759Z,10696
2017-04-14T13:28:56.502Z,10962
2017-04-14T13:29:58.468Z,10899
2017-04-14T13:31:00.706Z,10855
2017-04-14T13:32:02.616Z,11049
2017-04-14T13:33:04.522Z,10808
2017-04-14T13:34:06.468Z,8949
2017-04-14T13:35:08.280Z,7881
2017-04-14T13:36:10.144Z,8232
2017-04-14T13:37:11.983Z,7591
2017-04-14T13:38:14.036Z,6768
2017-04-14T13:39:15.920Z,5907
2017-04-14T13:40:17.910Z,5170
2017-04-14T13:41:19.731Z,5636
2017-04-14T13:42:21.574Z,5828
2017-04-14T13:43:23.438Z,6268
2017-04-14T13:44:25.621Z,6532
2017-04-14T13:45:27.539Z,6269
2017-04-14T13:46:29.365Z,6022
2017-04-14T13:47:31.572Z,5991
2017-04-14T13:48:33.490Z,5895
2017-04-14T13:49:35.318Z,5857
2017-04-14T13:50:37.146Z,5659
2017-04-14T13:51:39.331Z,5468
2017-04-14T13:52:41.207Z,5189
2017-04-14T13:53:43.035Z,4784
2017-04-14T13:54:44.851Z,4034
2017-04-14T13:55:46.907Z,3790
2017-04-14T13:56:48.799Z,3839
2017-04-14T13:57:50.642Z,4418
2017-04-14T13:58:53.338Z,4667
2017-04-14T13:59:55.495Z,4623
2017-04-14T14:00:57.446Z,4708
2017-04-14T14:01:59.560Z,4776